createdAt,value
2022-08-31T00:00:02.804Z,4.57
2022-08-31T00:02:29.569Z,4.95
2022-08-31T00:04:57.744Z,4.40
2022-08-31T00:07:25.169Z,4.72
2022-08-31T00:09:52.089Z,5.05
2022-08-31T00:12:19.106Z,5.63
2022-08-31T00:14:46.241Z,4.70
2022-08-31T00:17:13.511Z,4.80
2022-08-31T00:19:40.246Z,4.75
2022-08-31T00:22:08.412Z,5.07
2022-08-31T00:24:35.193Z,5.15
2022-08-31T00:27:02.022Z,4.63
2022-08-31T00:29:28.743Z,4.55
2022-08-31T00:31:55.573Z,5.15
2022-08-31T00:34:22.378Z,4.68
2022-08-31T00:36:49.147Z,5.05
2022-08-31T00:39:17.224Z,4.72
2022-08-31T00:41:44.337Z,5.10
2022-08-31T00:44:11.601Z,4.93
2022-08-31T00:46:41.142Z,4.80
2022-08-31T00:49:10.646Z,4.50
2022-08-31T00:51:42.242Z,4.82
2022-08-31T00:54:11.387Z,4.82
2022-08-31T00:56:40.722Z,4.50
2022-08-31T00:59:07.599Z,4.88
2022-08-31T01:01:34.468Z,4.57
2022-08-31T01:04:01.466Z,4.82
2022-08-31T01:06:28.530Z,4.55
2022-08-31T01:08:58.043Z,4.97
2022-08-31T01:11:25.493Z,5.05
2022-08-31T01:13:54.234Z,5.00
2022-08-31T01:16:24.966Z,4.55
2022-08-31T01:18:52.924Z,4.50
2022-08-31T01:21:26.865Z,5.20
2022-08-31T01:23:58.979Z,5.00
2022-08-31T01:26:27.879Z,4.80
2022-08-31T01:28:57.443Z,5.03
2022-08-31T01:31:26.989Z,4.95
2022-08-31T01:33:54.446Z,4.32
2022-08-31T01:36:22.613Z,4.32
2022-08-31T01:38:52.878Z,5.15
2022-08-31T01:41:22.372Z,4.70
2022-08-31T01:43:49.141Z,5.53
2022-08-31T01:46:16.090Z,4.38
2022-08-31T01:48:44.346Z,4.88
2022-08-31T01:51:13.177Z,4.72
2022-08-31T01:53:41.349Z,4.88
2022-08-31T01:56:11.927Z,4.80
2022-08-31T01:58:40.085Z,4.88
2022-08-31T02:01:32.773Z,4.90
2022-08-31T02:03:53.897Z,5.20
2022-08-31T02:06:24.242Z,5.47
2022-08-31T02:08:51.088Z,4.68
2022-08-31T02:11:17.965Z,4.60
2022-08-31T02:13:46.039Z,4.90
2022-08-31T02:16:12.875Z,5.25
2022-08-31T02:18:39.685Z,5.38
2022-08-31T02:21:06.626Z,4.40
2022-08-31T02:23:33.382Z,4.93
2022-08-31T02:26:00.216Z,4.75
2022-08-31T02:28:27.095Z,4.50
2022-08-31T02:30:55.190Z,4.93
2022-08-31T02:33:22.814Z,4.70
2022-08-31T02:35:53.496Z,4.78
2022-08-31T02:38:21.209Z,4.60
2022-08-31T02:40:49.057Z,4.60
2022-08-31T02:43:24.471Z,5.07
2022-08-31T02:45:53.666Z,4.78
2022-08-31T02:48:22.370Z,5.63
2022-08-31T02:50:51.424Z,4.38
2022-08-31T02:53:21.766Z,4.75
2022-08-31T02:55:49.234Z,4.70
2022-08-31T02:58:20.707Z,5.05
2022-08-31T03:00:50.956Z,4.55
2022-08-31T03:03:18.447Z,4.50
2022-08-31T03:05:46.671Z,5.25
2022-08-31T03:08:13.490Z,5.72
2022-08-31T03:10:40.760Z,5.00
2022-08-31T03:13:07.693Z,5.18
2022-08-31T03:15:34.581Z,5.13
2022-08-31T03:18:01.384Z,5.93
2022-08-31T03:20:33.690Z,4.85
2022-08-31T03:23:03.110Z,5.22
2022-08-31T03:25:31.517Z,4.60
2022-08-31T03:27:58.653Z,5.80
2022-08-31T03:30:27.537Z,4.85
2022-08-31T03:32:57.285Z,4.97
2022-08-31T03:35:30.132Z,4.55
2022-08-31T03:37:57.093Z,5.20
2022-08-31T03:40:25.390Z,5.50
2022-08-31T03:42:52.227Z,5.55
2022-08-31T03:45:19.092Z,4.90
2022-08-31T03:47:45.876Z,5.22
2022-08-31T03:50:12.733Z,4.88
2022-08-31T03:52:39.927Z,4.90
2022-08-31T03:55:08.085Z,5.28
2022-08-31T03:57:36.270Z,5.20
2022-08-31T04:00:07.085Z,5.22
2022-08-31T04:02:37.796Z,4.68
2022-08-31T04:05:05.285Z,4.80
2022-08-31T04:07:42.129Z,5.50
2022-08-31T04:10:11.036Z,5.13
2022-08-31T04:12:39.161Z,4.97
2022-08-31T04:15:07.489Z,5.00
2022-08-31T04:17:34.788Z,4.80
2022-08-31T04:20:01.548Z,5.60
2022-08-31T04:22:28.701Z,5.80
2022-08-31T04:24:55.568Z,5.30
2022-08-31T04:27:22.371Z,5.13
2022-08-31T04:29:50.465Z,4.65
2022-08-31T04:32:17.281Z,5.60
2022-08-31T04:34:44.129Z,4.97
2022-08-31T04:37:10.894Z,5.60
2022-08-31T04:39:50.913Z,5.00
2022-08-31T04:42:18.072Z,5.35
2022-08-31T04:44:44.854Z,5.28
2022-08-31T04:47:13.014Z,7.63
2022-08-31T04:49:40.127Z,5.57
2022-08-31T04:52:07.008Z,5.68
2022-08-31T04:54:33.824Z,4.68
2022-08-31T04:57:00.576Z,5.13
2022-08-31T04:59:27.360Z,4.88
2022-08-31T05:01:54.638Z,5.07
2022-08-31T05:04:23.027Z,5.45
2022-08-31T05:06:50.146Z,4.97
2022-08-31T05:09:19.274Z,5.18
2022-08-31T05:11:46.796Z,5.35
2022-08-31T05:14:13.697Z,5.03
2022-08-31T05:16:41.428Z,4.63
2022-08-31T05:19:08.841Z,5.45
2022-08-31T05:21:38.682Z,4.75
2022-08-31T05:24:08.075Z,6.03
2022-08-31T05:26:38.053Z,5.00
2022-08-31T05:29:09.782Z,5.55
2022-08-31T05:31:37.108Z,5.22
2022-08-31T05:34:04.771Z,5.30
2022-08-31T05:36:32.132Z,4.75
2022-08-31T05:39:01.456Z,4.53
2022-08-31T05:41:29.680Z,4.57
2022-08-31T05:43:56.572Z,4.88
2022-08-31T05:46:23.669Z,4.55
2022-08-31T05:48:50.497Z,4.60
2022-08-31T05:51:18.908Z,4.47
2022-08-31T05:53:46.556Z,4.75
2022-08-31T05:56:19.205Z,4.75
2022-08-31T05:58:47.330Z,4.95
2022-08-31T06:01:15.224Z,4.30
2022-08-31T06:03:42.643Z,4.97
2022-08-31T06:06:09.438Z,4.60
2022-08-31T06:08:36.441Z,4.93
2022-08-31T06:11:03.769Z,4.95
2022-08-31T06:13:32.065Z,4.80
2022-08-31T06:16:01.790Z,5.07
2022-08-31T06:18:28.570Z,4.78
2022-08-31T06:21:02.484Z,5.57
2022-08-31T06:23:29.297Z,5.43
2022-08-31T06:26:02.571Z,5.40
2022-08-31T06:28:30.753Z,4.47
2022-08-31T06:30:57.622Z,4.97
2022-08-31T06:33:24.353Z,3.90
2022-08-31T06:35:51.140Z,4.93
2022-08-31T06:38:17.895Z,5.47
2022-08-31T06:40:44.699Z,4.97
2022-08-31T06:43:11.552Z,4.63
2022-08-31T06:45:40.109Z,3.72
2022-08-31T06:48:06.852Z,4.85
2022-08-31T06:50:33.583Z,4.40
2022-08-31T06:53:00.593Z,5.25
2022-08-31T06:55:27.431Z,4.65
2022-08-31T06:57:54.188Z,4.55
2022-08-31T07:00:21.109Z,3.45
2022-08-31T07:02:57.250Z,3.95
2022-08-31T07:05:24.962Z,4.68
2022-08-31T07:07:51.937Z,4.03
2022-08-31T07:10:18.730Z,4.78
2022-08-31T07:12:45.465Z,4.63
2022-08-31T07:15:12.273Z,4.85
2022-08-31T07:17:39.016Z,5.13
2022-08-31T07:20:08.674Z,4.65
2022-08-31T07:22:35.425Z,4.45
2022-08-31T07:25:02.350Z,4.78
2022-08-31T07:27:29.104Z,5.70
2022-08-31T07:29:55.812Z,4.85
2022-08-31T07:32:22.633Z,4.15
2022-08-31T07:34:56.290Z,4.13
2022-08-31T07:37:26.795Z,4.90
2022-08-31T07:39:54.332Z,5.57
2022-08-31T07:42:26.798Z,4.20
2022-08-31T07:44:54.647Z,4.55
2022-08-31T07:47:22.853Z,5.25
2022-08-31T07:49:52.344Z,4.03
2022-08-31T07:52:21.254Z,4.55
2022-08-31T07:54:49.953Z,4.28
2022-08-31T07:57:17.428Z,4.28
2022-08-31T07:59:44.664Z,4.75
2022-08-31T08:02:16.611Z,4.80
2022-08-31T08:04:44.028Z,4.78
2022-08-31T08:07:12.073Z,4.65
2022-08-31T08:09:39.027Z,4.38
2022-08-31T08:12:07.762Z,4.90
2022-08-31T08:14:35.923Z,4.72
2022-08-31T08:17:03.577Z,5.00
2022-08-31T08:19:30.359Z,4.25
2022-08-31T08:21:57.092Z,4.57
2022-08-31T08:24:23.852Z,5.50
2022-08-31T08:26:54.278Z,4.57
2022-08-31T08:29:22.705Z,4.18
2022-08-31T08:31:50.221Z,3.97
2022-08-31T08:34:16.973Z,4.63
2022-08-31T08:36:43.671Z,5.15
2022-08-31T08:39:13.069Z,4.47
2022-08-31T08:41:42.667Z,5.38
2022-08-31T08:44:16.763Z,4.82
2022-08-31T08:46:50.805Z,4.80
2022-08-31T08:49:24.878Z,4.82
2022-08-31T08:51:56.451Z,4.60
2022-08-31T08:54:31.301Z,4.70
2022-08-31T08:56:59.228Z,4.28
2022-08-31T08:59:26.774Z,4.43
2022-08-31T09:01:56.567Z,4.55
2022-08-31T09:04:35.679Z,4.25
2022-08-31T09:07:17.374Z,4.28
2022-08-31T09:09:53.546Z,4.57
2022-08-31T09:12:30.823Z,3.85
2022-08-31T09:15:13.351Z,3.97
2022-08-31T09:17:48.954Z,4.22
2022-08-31T09:20:15.865Z,4.40
2022-08-31T09:22:44.889Z,4.05
2022-08-31T09:25:13.108Z,3.83
2022-08-31T09:27:43.744Z,3.95
2022-08-31T09:30:11.996Z,3.95
2022-08-31T09:32:38.707Z,4.10
2022-08-31T09:35:21.966Z,4.82
2022-08-31T09:37:58.671Z,3.72
2022-08-31T09:40:35.653Z,3.88
2022-08-31T09:43:05.161Z,3.70
2022-08-31T09:45:32.949Z,3.58
2022-08-31T09:47:59.723Z,3.92
2022-08-31T09:50:35.564Z,4.00
2022-08-31T09:53:16.706Z,4.00
2022-08-31T09:55:43.462Z,4.10
2022-08-31T09:58:10.223Z,4.20
2022-08-31T10:00:40.710Z,4.45
2022-08-31T10:03:12.122Z,4.07
2022-08-31T10:05:41.788Z,4.32
2022-08-31T10:08:28.529Z,4.40
2022-08-31T10:10:55.842Z,3.97
2022-08-31T10:13:29.222Z,4.43
2022-08-31T10:15:59.630Z,4.05
2022-08-31T10:18:32.578Z,3.83
2022-08-31T10:21:08.366Z,3.92
2022-08-31T10:23:39.416Z,3.95
2022-08-31T10:26:12.950Z,3.42
2022-08-31T10:28:44.641Z,3.80
2022-08-31T10:31:17.956Z,3.33
2022-08-31T10:33:55.127Z,3.78
2022-08-31T10:36:23.620Z,4.00
2022-08-31T10:38:52.646Z,3.65
2022-08-31T10:41:24.288Z,3.83
2022-08-31T10:43:58.644Z,3.58
2022-08-31T10:46:25.657Z,3.65
2022-08-31T10:48:52.585Z,4.10
2022-08-31T10:51:30.187Z,4.35
2022-08-31T10:54:10.522Z,3.78
2022-08-31T10:56:43.264Z,4.50
2022-08-31T10:59:22.068Z,4.05
2022-08-31T11:02:00.151Z,3.95
2022-08-31T11:04:48.156Z,4.15
2022-08-31T11:07:25.568Z,4.30
2022-08-31T11:10:02.975Z,4.32
2022-08-31T11:12:32.777Z,3.97
2022-08-31T11:15:21.512Z,4.68
2022-08-31T11:18:13.680Z,4.50
2022-08-31T11:20:58.821Z,4.25
2022-08-31T11:23:42.170Z,4.63
2022-08-31T11:26:44.029Z,4.13
2022-08-31T11:29:22.849Z,4.22
2022-08-31T11:31:50.626Z,4.43
2022-08-31T11:34:26.958Z,4.47
2022-08-31T11:36:56.188Z,4.65
2022-08-31T11:39:45.525Z,4.50
2022-08-31T11:42:28.666Z,4.22
2022-08-31T11:45:05.829Z,4.07
2022-08-31T11:47:38.883Z,3.70
2022-08-31T11:50:12.711Z,4.47
2022-08-31T11:52:45.243Z,4.18
2022-08-31T11:55:24.965Z,4.38
2022-08-31T11:58:25.508Z,4.07
2022-08-31T12:00:56.848Z,3.95
2022-08-31T12:03:46.281Z,4.90
2022-08-31T12:06:46.841Z,3.85
2022-08-31T12:09:32.339Z,4.68
2022-08-31T12:12:09.624Z,4.50
2022-08-31T12:14:42.314Z,4.10
2022-08-31T12:17:22.902Z,4.93
2022-08-31T12:20:00.967Z,4.55
2022-08-31T12:22:55.305Z,4.30
2022-08-31T12:25:31.189Z,4.85
2022-08-31T12:28:08.457Z,4.63
2022-08-31T12:30:35.316Z,4.15
2022-08-31T12:33:08.248Z,4.47
2022-08-31T12:35:37.407Z,4.32
2022-08-31T12:38:06.638Z,3.97
2022-08-31T12:40:35.544Z,3.90
2022-08-31T12:43:09.929Z,4.55
2022-08-31T12:45:56.310Z,3.83
2022-08-31T12:48:44.874Z,4.28
2022-08-31T12:51:18.667Z,4.03
2022-08-31T12:54:12.317Z,4.82
2022-08-31T12:56:49.510Z,4.68
2022-08-31T12:59:45.697Z,4.40
2022-08-31T13:02:16.596Z,5.10
2022-08-31T13:04:45.856Z,3.83
2022-08-31T13:07:15.043Z,4.20
2022-08-31T13:09:41.828Z,4.55
2022-08-31T13:12:08.534Z,4.72
2022-08-31T13:14:42.144Z,5.10
2022-08-31T13:17:14.127Z,5.07
2022-08-31T13:19:45.895Z,4.63
2022-08-31T13:22:13.250Z,4.45
2022-08-31T13:24:42.512Z,4.75
2022-08-31T13:27:21.189Z,4.20
2022-08-31T13:29:50.345Z,3.55
2022-08-31T13:32:30.012Z,3.45
2022-08-31T13:34:57.033Z,3.28
2022-08-31T13:37:27.157Z,3.15
2022-08-31T13:39:54.374Z,2.83
2022-08-31T13:42:33.173Z,3.28
2022-08-31T13:45:04.600Z,3.08
2022-08-31T13:47:33.553Z,3.15
2022-08-31T13:50:17.928Z,3.47
2022-08-31T13:53:04.133Z,3.42
2022-08-31T13:55:37.890Z,3.25
2022-08-31T13:58:06.620Z,3.40
2022-08-31T14:00:40.468Z,3.45
2022-08-31T14:03:30.342Z,3.42
2022-08-31T14:06:14.499Z,3.58
2022-08-31T14:08:41.211Z,3.50
2022-08-31T14:11:11.687Z,4.10
2022-08-31T14:13:46.716Z,3.40
2022-08-31T14:16:20.242Z,3.25
2022-08-31T14:18:53.723Z,3.35
2022-08-31T14:21:25.626Z,3.70
2022-08-31T14:23:54.200Z,3.85
2022-08-31T14:26:22.673Z,3.28
2022-08-31T14:28:51.928Z,3.55
2022-08-31T14:31:24.658Z,3.38
2022-08-31T14:34:07.819Z,3.05
2022-08-31T14:36:36.752Z,3.35
2022-08-31T14:39:03.714Z,3.58
2022-08-31T14:41:32.024Z,3.15
2022-08-31T14:44:01.936Z,3.22
2022-08-31T14:46:30.053Z,3.72
2022-08-31T14:48:56.829Z,3.55
2022-08-31T14:51:24.625Z,3.60
2022-08-31T14:53:53.133Z,4.03
2022-08-31T14:56:19.909Z,3.85
2022-08-31T14:58:47.085Z,3.50
2022-08-31T15:01:13.907Z,3.50
2022-08-31T15:03:42.697Z,3.55
2022-08-31T15:06:09.606Z,3.33
2022-08-31T15:08:38.267Z,3.42
2022-08-31T15:11:06.451Z,4.28
2022-08-31T15:13:33.479Z,3.58
2022-08-31T15:16:01.033Z,3.38
2022-08-31T15:18:27.812Z,3.17
2022-08-31T15:20:56.020Z,3.75
2022-08-31T15:23:22.829Z,3.75
2022-08-31T15:25:49.673Z,3.58
2022-08-31T15:28:16.442Z,3.90
2022-08-31T15:30:43.217Z,4.28
2022-08-31T15:33:09.973Z,3.92
2022-08-31T15:35:36.781Z,4.10
2022-08-31T15:38:04.928Z,4.03
2022-08-31T15:40:37.726Z,3.90
2022-08-31T15:43:06.077Z,4.25
2022-08-31T15:45:32.886Z,3.88
2022-08-31T15:47:59.641Z,3.55
2022-08-31T15:50:31.377Z,4.45
2022-08-31T15:53:05.212Z,4.30
2022-08-31T15:55:37.492Z,4.65
2022-08-31T15:58:04.261Z,4.47
2022-08-31T16:00:31.231Z,4.28
2022-08-31T16:02:58.591Z,5.40
2022-08-31T16:05:26.939Z,4.68
2022-08-31T16:07:54.075Z,4.57
2022-08-31T16:10:21.118Z,6.35
2022-08-31T16:12:49.491Z,5.43
2022-08-31T16:15:16.954Z,4.85
2022-08-31T16:17:43.966Z,4.85
2022-08-31T16:20:12.714Z,4.30
2022-08-31T16:22:40.808Z,4.60
2022-08-31T16:25:08.750Z,4.45
2022-08-31T16:27:35.629Z,4.72
2022-08-31T16:30:04.680Z,4.72
2022-08-31T16:32:31.470Z,4.32
2022-08-31T16:34:58.295Z,4.35
2022-08-31T16:37:25.519Z,4.28
2022-08-31T16:39:52.503Z,4.40
2022-08-31T16:42:19.453Z,5.13
2022-08-31T16:44:46.567Z,4.47
2022-08-31T16:47:16.637Z,4.22
2022-08-31T16:49:43.477Z,4.35
2022-08-31T16:52:12.807Z,4.68
2022-08-31T16:54:41.038Z,4.78
2022-08-31T16:57:08.064Z,4.60
2022-08-31T16:59:34.928Z,4.55
2022-08-31T17:02:01.906Z,5.55
2022-08-31T17:04:50.873Z,4.88
2022-08-31T17:07:18.380Z,5.10
2022-08-31T17:09:45.367Z,4.85
2022-08-31T17:12:14.352Z,4.97
2022-08-31T17:14:44.063Z,5.13
2022-08-31T17:17:13.081Z,4.75
2022-08-31T17:19:42.802Z,5.50
2022-08-31T17:22:12.652Z,5.25
2022-08-31T17:24:41.492Z,5.45
2022-08-31T17:27:09.310Z,5.38
2022-08-31T17:29:43.752Z,5.57
2022-08-31T17:32:13.720Z,4.95
2022-08-31T17:34:42.529Z,5.18
2022-08-31T17:37:11.765Z,5.47
2022-08-31T17:39:38.789Z,6.03
2022-08-31T17:42:06.140Z,5.50
2022-08-31T17:44:32.977Z,5.50
2022-08-31T17:47:02.312Z,4.90
2022-08-31T17:49:31.088Z,4.85
2022-08-31T17:52:06.408Z,4.95
2022-08-31T17:54:34.184Z,4.85
2022-08-31T17:57:03.357Z,5.22
2022-08-31T17:59:33.359Z,4.78
2022-08-31T18:02:03.181Z,4.40
2022-08-31T18:04:30.986Z,5.28
2022-08-31T18:06:58.253Z,5.05
2022-08-31T18:09:29.268Z,4.75
2022-08-31T18:11:56.753Z,4.93
2022-08-31T18:14:26.227Z,5.10
2022-08-31T18:16:54.485Z,5.07
2022-08-31T18:19:27.882Z,4.63
2022-08-31T18:21:55.328Z,4.82
2022-08-31T18:24:22.367Z,5.07
2022-08-31T18:26:52.046Z,5.05
2022-08-31T18:29:24.409Z,4.97
2022-08-31T18:31:52.132Z,5.45
2022-08-31T18:34:21.430Z,5.13
2022-08-31T18:36:49.188Z,4.75
2022-08-31T18:39:34.469Z,4.57
2022-08-31T18:42:07.265Z,4.70
2022-08-31T18:44:34.779Z,4.90
2022-08-31T18:47:03.809Z,4.43
2022-08-31T18:49:30.801Z,4.63
2022-08-31T18:51:57.641Z,4.28
2022-08-31T18:54:24.768Z,5.03
2022-08-31T18:56:51.578Z,4.20
2022-08-31T18:59:19.935Z,4.00
2022-08-31T19:01:47.329Z,4.80
2022-08-31T19:04:17.570Z,4.45
2022-08-31T19:06:46.744Z,4.30
2022-08-31T19:09:13.748Z,3.97
2022-08-31T19:11:41.922Z,4.63
2022-08-31T19:14:09.910Z,4.53
2022-08-31T19:16:38.192Z,4.70
2022-08-31T19:19:05.137Z,4.40
2022-08-31T19:21:33.585Z,4.60
2022-08-31T19:24:01.849Z,4.63
2022-08-31T19:26:30.902Z,4.82
2022-08-31T19:28:58.876Z,4.63
2022-08-31T19:31:27.653Z,4.25
2022-08-31T19:33:57.205Z,3.88
2022-08-31T19:36:24.520Z,4.10
2022-08-31T19:38:51.778Z,4.90
2022-08-31T19:41:22.627Z,4.55
2022-08-31T19:43:56.144Z,4.60
2022-08-31T19:46:32.699Z,4.50
2022-08-31T19:49:01.195Z,5.10
2022-08-31T19:51:29.649Z,4.30
2022-08-31T19:53:56.709Z,4.55
2022-08-31T19:56:25.333Z,4.40
2022-08-31T19:58:53.437Z,4.57
2022-08-31T20:01:22.827Z,5.13
2022-08-31T20:03:50.096Z,4.22
2022-08-31T20:06:20.685Z,4.70
2022-08-31T20:08:49.177Z,4.70
2022-08-31T20:11:21.692Z,4.88
2022-08-31T20:13:49.074Z,4.47
2022-08-31T20:16:16.432Z,4.70
2022-08-31T20:18:43.414Z,5.07
2022-08-31T20:21:12.214Z,4.90
2022-08-31T20:23:41.775Z,5.50
2022-08-31T20:26:08.604Z,5.28
2022-08-31T20:28:35.397Z,4.95
2022-08-31T20:31:06.215Z,5.50
2022-08-31T20:33:33.484Z,4.95
2022-08-31T20:36:00.378Z,5.30
2022-08-31T20:38:27.561Z,5.28
2022-08-31T20:40:55.763Z,5.25
2022-08-31T20:43:23.648Z,5.38
2022-08-31T20:45:50.737Z,8.23
2022-08-31T20:48:17.536Z,5.68
2022-08-31T20:50:48.929Z,5.53
2022-08-31T20:53:16.732Z,5.60
2022-08-31T20:55:49.310Z,5.28
2022-08-31T20:58:17.484Z,6.00
2022-08-31T21:00:44.395Z,5.97
2022-08-31T21:03:11.601Z,5.53
2022-08-31T21:05:39.321Z,6.32
2022-08-31T21:08:06.347Z,6.80
2022-08-31T21:10:37.596Z,6.32
2022-08-31T21:13:06.494Z,6.00
2022-08-31T21:15:34.804Z,5.85
2022-08-31T21:18:01.678Z,6.78
2022-08-31T21:20:28.464Z,6.10
2022-08-31T21:22:55.209Z,6.55
2022-08-31T21:25:22.033Z,7.10
2022-08-31T21:27:48.785Z,5.95
2022-08-31T21:30:15.850Z,5.90
2022-08-31T21:32:44.373Z,6.38
2022-08-31T21:35:12.736Z,6.35
2022-08-31T21:37:39.525Z,6.05
2022-08-31T21:40:07.442Z,6.50
2022-08-31T21:42:34.260Z,6.80
2022-08-31T21:45:01.029Z,6.65
2022-08-31T21:47:27.845Z,6.13
2022-08-31T21:49:55.944Z,6.32
2022-08-31T21:52:22.773Z,7.07
2022-08-31T21:54:49.541Z,6.43
2022-08-31T21:57:16.320Z,5.90
2022-08-31T21:59:43.124Z,6.80
2022-08-31T22:02:11.850Z,6.40
2022-08-31T22:04:40.757Z,6.22
2022-08-31T22:07:09.719Z,6.68
2022-08-31T22:09:37.272Z,6.03
2022-08-31T22:12:05.173Z,6.88
2022-08-31T22:14:33.064Z,6.68
2022-08-31T22:17:00.519Z,5.70
2022-08-31T22:19:27.641Z,7.45
2022-08-31T22:21:57.819Z,6.25
2022-08-31T22:24:28.243Z,6.05
2022-08-31T22:26:57.666Z,6.82
2022-08-31T22:29:27.480Z,6.45
2022-08-31T22:31:57.829Z,6.28
2022-08-31T22:34:25.295Z,7.07
2022-08-31T22:36:53.356Z,6.72
2022-08-31T22:39:22.855Z,6.53
2022-08-31T22:41:51.908Z,6.47
2022-08-31T22:44:21.422Z,6.82
2022-08-31T22:46:48.634Z,7.45
2022-08-31T22:49:15.756Z,7.22
2022-08-31T22:51:43.602Z,6.20
2022-08-31T22:54:10.918Z,8.18
2022-08-31T22:56:39.066Z,7.95
2022-08-31T22:59:10.027Z,7.60
2022-08-31T23:01:39.394Z,7.78
2022-08-31T23:04:08.234Z,7.20
2022-08-31T23:06:37.166Z,7.53
2022-08-31T23:09:05.456Z,7.75
2022-08-31T23:11:32.207Z,7.18
2022-08-31T23:14:02.830Z,8.07
2022-08-31T23:16:35.636Z,7.88
2022-08-31T23:19:06.312Z,8.02
2022-08-31T23:21:33.877Z,7.80
2022-08-31T23:24:01.855Z,7.63
2022-08-31T23:26:30.338Z,8.60
2022-08-31T23:28:58.783Z,8.50
2022-08-31T23:31:26.740Z,8.57
2022-08-31T23:33:55.008Z,7.22
2022-08-31T23:36:22.852Z,7.90
2022-08-31T23:38:49.591Z,9.38
2022-08-31T23:41:17.262Z,8.32
2022-08-31T23:43:44.364Z,8.27
2022-08-31T23:46:11.197Z,8.52
2022-08-31T23:48:37.950Z,7.82
2022-08-31T23:51:07.692Z,8.60
2022-08-31T23:53:34.476Z,8.80
2022-08-31T23:56:01.360Z,8.10
2022-08-31T23:58:28.124Z,8.73
